BAW249 EGLL-SBGL
Flight info
| Callsign | BAW249 |
|---|---|
| Flight time | N/A |
| Altitude | 32000 |
| Route | GASGU N514 ADKIK DCT JOZMA DCT GAPLI/M083F320 DCT TAMEL DCT GONAN DCT 40N018W/M083F340 35N021W DCT SORAD DCT OBOMO/N0490F340 DCT TARIM/N0488F360 DCT PINRU UN741 TERIN UZ19 ANPAG UZ29 ARUKA/N0483F380 UZ29 KEVOS UN401 MOLSU |
| Aircraft | B77W/H-SDE1E2E3FGHIJ2J3J4J5M1RWXY/LB1D1 |
Departure
| Time | N/A |
|---|---|
| Airport | London Heathrow Airport (EGLL) |
Arrival
| Time | 2026-05-07 20:03 |
|---|---|
| Airport | Rio Galeão – Tom Jobim International Airport (SBGL) |
| Time | Latitude | Longitude | Altitude | Speed | Heading |
|---|---|---|---|---|---|
| 2026-05-07 16:03 | 4.60005 | -34.10074 | 35923 ft | 473 kts | 208° |
| 2026-05-07 16:03 | 4.54155 | -34.13184 | 35923 ft | 473 kts | 208° |
| 2026-05-07 16:04 | 4.48361 | -34.16264 | 35923 ft | 473 kts | 208° |
| 2026-05-07 16:04 | 4.42542 | -34.19375 | 35921 ft | 473 kts | 208° |
| 2026-05-07 16:05 | 4.36719 | -34.22494 | 35920 ft | 474 kts | 208° |
| 2026-05-07 16:05 | 4.30936 | -34.25591 | 35923 ft | 474 kts | 208° |
| 2026-05-07 16:06 | 4.25111 | -34.28707 | 35925 ft | 474 kts | 208° |
| 2026-05-07 16:06 | 4.19288 | -34.31821 | 35923 ft | 474 kts | 208° |
| 2026-05-07 16:07 | 4.13496 | -34.34919 | 35922 ft | 474 kts | 208° |
| 2026-05-07 16:07 | 4.07666 | -34.38036 | 35924 ft | 474 kts | 208° |
| 2026-05-07 16:08 | 4.02813 | -34.40631 | 35924 ft | 474 kts | 208° |
| 2026-05-07 16:08 | 3.96974 | -34.43752 | 35924 ft | 474 kts | 208° |
| 2026-05-07 16:09 | 3.91167 | -34.46856 | 35924 ft | 474 kts | 208° |
| 2026-05-07 16:09 | 3.85332 | -34.49974 | 35922 ft | 474 kts | 208° |
| 2026-05-07 16:10 | 3.79534 | -34.53072 | 35924 ft | 474 kts | 208° |
| 2026-05-07 16:10 | 3.73690 | -34.56194 | 35925 ft | 474 kts | 208° |
| 2026-05-07 16:11 | 3.67899 | -34.59288 | 35923 ft | 474 kts | 208° |
| 2026-05-07 16:11 | 3.62046 | -34.62414 | 35922 ft | 474 kts | 208° |
| 2026-05-07 16:12 | 3.56264 | -34.65503 | 35924 ft | 474 kts | 208° |
| 2026-05-07 16:12 | 3.50437 | -34.68613 | 35924 ft | 473 kts | 208° |
| 2026-05-07 16:13 | 3.44621 | -34.71718 | 35924 ft | 473 kts | 208° |
| 2026-05-07 16:13 | 3.38837 | -34.74807 | 35919 ft | 473 kts | 208° |
| 2026-05-07 16:14 | 3.33009 | -34.77919 | 35920 ft | 473 kts | 208° |
| 2026-05-07 16:14 | 3.27200 | -34.81021 | 35920 ft | 473 kts | 208° |
| 2026-05-07 16:15 | 3.21406 | -34.84114 | 35923 ft | 473 kts | 208° |
| 2026-05-07 16:15 | 3.15581 | -34.87224 | 35920 ft | 473 kts | 208° |
| 2026-05-07 16:16 | 3.09797 | -34.90311 | 35921 ft | 473 kts | 208° |
| 2026-05-07 16:16 | 3.03963 | -34.93425 | 35921 ft | 474 kts | 208° |
| 2026-05-07 16:17 | 2.98171 | -34.96515 | 35920 ft | 474 kts | 208° |
| 2026-05-07 16:17 | 2.92347 | -34.99623 | 35923 ft | 474 kts | 208° |
| 2026-05-07 16:18 | 2.86540 | -35.02722 | 35923 ft | 474 kts | 207° |
| 2026-05-07 16:18 | 2.80697 | -35.05839 | 35921 ft | 475 kts | 207° |
| 2026-05-07 16:19 | 2.74855 | -35.08956 | 35921 ft | 475 kts | 207° |
| 2026-05-07 16:19 | 2.69023 | -35.12066 | 35922 ft | 475 kts | 207° |
| 2026-05-07 16:20 | 2.63208 | -35.15154 | 35917 ft | 475 kts | 207° |
| 2026-05-07 16:20 | 2.57358 | -35.18256 | 35922 ft | 475 kts | 207° |
| 2026-05-07 16:21 | 2.51530 | -35.21348 | 35921 ft | 475 kts | 207° |
| 2026-05-07 16:21 | 2.45683 | -35.24452 | 35922 ft | 475 kts | 207° |
| 2026-05-07 16:22 | 2.39865 | -35.27540 | 35922 ft | 475 kts | 207° |
| 2026-05-07 16:22 | 2.34004 | -35.30651 | 35918 ft | 475 kts | 207° |
| 2026-05-07 16:23 | 2.28190 | -35.33736 | 35922 ft | 475 kts | 207° |
| 2026-05-07 16:23 | 2.22335 | -35.36843 | 35924 ft | 475 kts | 207° |
| 2026-05-07 16:24 | 2.16503 | -35.39937 | 35924 ft | 475 kts | 207° |
| 2026-05-07 16:24 | 2.10685 | -35.43024 | 35924 ft | 475 kts | 207° |
| 2026-05-07 16:25 | 2.04833 | -35.46128 | 35922 ft | 475 kts | 207° |
| 2026-05-07 16:25 | 1.98992 | -35.49227 | 35922 ft | 474 kts | 207° |
| 2026-05-07 16:26 | 1.93149 | -35.52325 | 35920 ft | 474 kts | 207° |
| 2026-05-07 16:26 | 1.87349 | -35.55402 | 35926 ft | 474 kts | 207° |
| 2026-05-07 16:27 | 1.81507 | -35.58500 | 35923 ft | 475 kts | 207° |
| 2026-05-07 16:27 | 1.75660 | -35.61601 | 35925 ft | 475 kts | 207° |
| 2026-05-07 16:28 | 1.69846 | -35.64683 | 35925 ft | 475 kts | 207° |
| 2026-05-07 16:28 | 1.63984 | -35.67792 | 35926 ft | 476 kts | 207° |
| 2026-05-07 16:29 | 1.58146 | -35.70887 | 35919 ft | 476 kts | 207° |
| 2026-05-07 16:29 | 1.52274 | -35.74000 | 35921 ft | 477 kts | 207° |
| 2026-05-07 16:30 | 1.46407 | -35.77110 | 35920 ft | 477 kts | 207° |
| 2026-05-07 16:30 | 1.40572 | -35.80203 | 35922 ft | 477 kts | 207° |
| 2026-05-07 16:31 | 1.34690 | -35.83321 | 35924 ft | 478 kts | 207° |
| 2026-05-07 16:31 | 1.28827 | -35.86428 | 35921 ft | 478 kts | 207° |
| 2026-05-07 16:32 | 1.22936 | -35.89550 | 35924 ft | 478 kts | 207° |
| 2026-05-07 16:32 | 1.17032 | -35.92679 | 35919 ft | 479 kts | 207° |
| 2026-05-07 16:33 | 1.11163 | -35.95789 | 35923 ft | 479 kts | 207° |
| 2026-05-07 16:33 | 1.05255 | -35.98920 | 35924 ft | 480 kts | 207° |
| 2026-05-07 16:34 | 0.99384 | -36.02031 | 35924 ft | 480 kts | 207° |
| 2026-05-07 16:34 | 0.93464 | -36.05168 | 35922 ft | 480 kts | 207° |
| 2026-05-07 16:35 | 0.87553 | -36.08300 | 35925 ft | 481 kts | 207° |
| 2026-05-07 16:35 | 0.81667 | -36.11418 | 35920 ft | 481 kts | 207° |
| 2026-05-07 16:36 | 0.75739 | -36.14559 | 35919 ft | 481 kts | 207° |
| 2026-05-07 16:36 | 0.69835 | -36.17686 | 35919 ft | 481 kts | 207° |
| 2026-05-07 16:37 | 0.63904 | -36.20829 | 35923 ft | 481 kts | 207° |
| 2026-05-07 16:37 | 0.58005 | -36.23954 | 35920 ft | 482 kts | 207° |
| 2026-05-07 16:38 | 0.52071 | -36.27098 | 35922 ft | 481 kts | 207° |
| 2026-05-07 16:38 | 0.46139 | -36.30240 | 35920 ft | 481 kts | 207° |
| 2026-05-07 16:39 | 0.40237 | -36.33367 | 35920 ft | 481 kts | 207° |
| 2026-05-07 16:39 | 0.34350 | -36.36485 | 35920 ft | 481 kts | 207° |
| 2026-05-07 16:40 | 0.28422 | -36.39625 | 35918 ft | 481 kts | 207° |
| 2026-05-07 16:40 | 0.22491 | -36.42766 | 35923 ft | 481 kts | 207° |
| 2026-05-07 16:41 | 0.16596 | -36.45889 | 35923 ft | 481 kts | 207° |
| 2026-05-07 16:41 | 0.10704 | -36.49010 | 35920 ft | 482 kts | 207° |
| 2026-05-07 16:42 | 0.04770 | -36.52154 | 35924 ft | 482 kts | 207° |
| 2026-05-07 16:42 | -0.01169 | -36.55300 | 35921 ft | 483 kts | 207° |
| 2026-05-07 16:43 | -0.07094 | -36.58438 | 35923 ft | 483 kts | 207° |
| 2026-05-07 16:43 | -0.13040 | -36.61587 | 35921 ft | 484 kts | 207° |
| 2026-05-07 16:44 | -0.19004 | -36.64747 | 35923 ft | 484 kts | 207° |
| 2026-05-07 16:44 | -0.24923 | -36.67882 | 35922 ft | 484 kts | 207° |
| 2026-05-07 16:45 | -0.30848 | -36.71021 | 35922 ft | 484 kts | 207° |
| 2026-05-07 16:45 | -0.36811 | -36.74180 | 35920 ft | 484 kts | 207° |
| 2026-05-07 16:46 | -0.42734 | -36.77317 | 35921 ft | 484 kts | 207° |
| 2026-05-07 16:46 | -0.48702 | -36.80479 | 35924 ft | 485 kts | 207° |
| 2026-05-07 16:47 | -0.54645 | -36.83627 | 35923 ft | 485 kts | 208° |
| 2026-05-07 16:47 | -0.60623 | -36.86794 | 35920 ft | 485 kts | 208° |
| 2026-05-07 16:48 | -0.66606 | -36.89964 | 35920 ft | 486 kts | 208° |
| 2026-05-07 16:48 | -0.72563 | -36.93120 | 35921 ft | 486 kts | 208° |
| 2026-05-07 16:49 | -0.78559 | -36.96298 | 35922 ft | 487 kts | 208° |
| 2026-05-07 16:49 | -0.84523 | -36.99458 | 35919 ft | 488 kts | 208° |
| 2026-05-07 16:50 | -0.90539 | -37.02646 | 35921 ft | 488 kts | 208° |
| 2026-05-07 16:50 | -0.96571 | -37.05713 | 35917 ft | 489 kts | 205° |
| 2026-05-07 16:51 | -1.02830 | -37.08424 | 35925 ft | 490 kts | 204° |
| 2026-05-07 16:51 | -1.09132 | -37.11100 | 35918 ft | 490 kts | 204° |
| 2026-05-07 16:52 | -1.15372 | -37.13774 | 35917 ft | 490 kts | 204° |
| 2026-05-07 16:52 | -1.21610 | -37.16467 | 35917 ft | 490 kts | 204° |
| 2026-05-07 16:53 | -1.27885 | -37.19181 | 35919 ft | 489 kts | 204° |
| 2026-05-07 16:53 | -1.34102 | -37.21871 | 35914 ft | 488 kts | 204° |
| 2026-05-07 16:54 | -1.39292 | -37.24115 | 35912 ft | 488 kts | 204° |
| 2026-05-07 16:54 | -1.45543 | -37.26818 | 35913 ft | 488 kts | 204° |
| 2026-05-07 16:55 | -1.51736 | -37.29496 | 35915 ft | 488 kts | 204° |
| 2026-05-07 16:55 | -1.57991 | -37.32201 | 35912 ft | 489 kts | 204° |
| 2026-05-07 16:56 | -1.64208 | -37.34889 | 35914 ft | 490 kts | 205° |
| 2026-05-07 16:56 | -1.73631 | -37.38965 | 35918 ft | 492 kts | 205° |
| 2026-05-07 16:57 | -1.79891 | -37.41672 | 35919 ft | 492 kts | 205° |
| 2026-05-07 16:57 | -1.86190 | -37.44396 | 35913 ft | 492 kts | 205° |
| 2026-05-07 16:58 | -1.92450 | -37.47104 | 35911 ft | 492 kts | 205° |
| 2026-05-07 16:58 | -1.98737 | -37.49824 | 35912 ft | 490 kts | 205° |
| 2026-05-07 16:59 | -2.05002 | -37.52535 | 35910 ft | 489 kts | 205° |
| 2026-05-07 16:59 | -2.11189 | -37.55213 | 35909 ft | 487 kts | 205° |
| 2026-05-07 17:00 | -2.17411 | -37.57904 | 35909 ft | 486 kts | 205° |
| 2026-05-07 17:00 | -2.23620 | -37.60592 | 35911 ft | 485 kts | 205° |
| 2026-05-07 17:01 | -2.29789 | -37.63262 | 35912 ft | 484 kts | 205° |
| 2026-05-07 17:01 | -2.35993 | -37.65949 | 35908 ft | 484 kts | 205° |
| 2026-05-07 17:02 | -2.42142 | -37.68611 | 35912 ft | 484 kts | 205° |
| 2026-05-07 17:02 | -2.48335 | -37.71291 | 35912 ft | 484 kts | 205° |
| 2026-05-07 17:03 | -2.54540 | -37.73979 | 35907 ft | 484 kts | 205° |
| 2026-05-07 17:03 | -2.60682 | -37.76639 | 35905 ft | 484 kts | 205° |
| 2026-05-07 17:04 | -2.66878 | -37.79323 | 35906 ft | 484 kts | 205° |
| 2026-05-07 17:04 | -2.73067 | -37.82004 | 35903 ft | 483 kts | 205° |
| 2026-05-07 17:05 | -2.79209 | -37.84664 | 35903 ft | 483 kts | 205° |
| 2026-05-07 17:05 | -2.85388 | -37.87340 | 35905 ft | 483 kts | 205° |
| 2026-05-07 17:06 | -2.91522 | -37.89999 | 35906 ft | 483 kts | 205° |
| 2026-05-07 17:06 | -2.97704 | -37.92678 | 35906 ft | 482 kts | 205° |
| 2026-05-07 17:07 | -3.03838 | -37.95338 | 35906 ft | 487 kts | 204° |
| 2026-05-07 17:07 | -3.10152 | -37.98075 | 35919 ft | 498 kts | 204° |
| 2026-05-07 17:08 | -3.16455 | -38.00913 | 35908 ft | 499 kts | 206° |
| 2026-05-07 17:08 | -3.22780 | -38.03878 | 35902 ft | 499 kts | 206° |
| 2026-05-07 17:09 | -3.29048 | -38.06807 | 35902 ft | 498 kts | 206° |
| 2026-05-07 17:09 | -3.35331 | -38.09722 | 35904 ft | 496 kts | 206° |
| 2026-05-07 17:10 | -3.41568 | -38.12611 | 35900 ft | 495 kts | 206° |
| 2026-05-07 17:10 | -3.47823 | -38.15511 | 35904 ft | 493 kts | 206° |
| 2026-05-07 17:11 | -3.54018 | -38.18384 | 35907 ft | 492 kts | 205° |
| 2026-05-07 17:11 | -3.60283 | -38.21174 | 35900 ft | 492 kts | 205° |
| 2026-05-07 17:12 | -3.66542 | -38.23910 | 35899 ft | 492 kts | 205° |
| 2026-05-07 17:12 | -3.72829 | -38.26675 | 35894 ft | 492 kts | 205° |
| 2026-05-07 17:13 | -3.79111 | -38.29452 | 35895 ft | 493 kts | 205° |
| 2026-05-07 17:13 | -3.85352 | -38.32212 | 35890 ft | 493 kts | 205° |
| 2026-05-07 17:14 | -3.91643 | -38.34992 | 35891 ft | 493 kts | 205° |
| 2026-05-07 17:14 | -3.97900 | -38.37743 | 35893 ft | 493 kts | 205° |
| 2026-05-07 17:15 | -4.04193 | -38.40560 | 35893 ft | 493 kts | 205° |
| 2026-05-07 17:15 | -4.10436 | -38.43363 | 35899 ft | 493 kts | 205° |
| 2026-05-07 17:16 | -4.16718 | -38.46165 | 35894 ft | 493 kts | 205° |
| 2026-05-07 17:16 | -4.22954 | -38.48950 | 35895 ft | 493 kts | 205° |
| 2026-05-07 17:17 | -4.29401 | -38.51269 | 35897 ft | 494 kts | 193° |
| 2026-05-07 17:17 | -4.36252 | -38.51892 | 35892 ft | 496 kts | 178° |
| 2026-05-07 17:18 | -4.43104 | -38.51369 | 35896 ft | 496 kts | 177° |
| 2026-05-07 17:18 | -4.50009 | -38.51235 | 35892 ft | 495 kts | 181° |
| 2026-05-07 17:19 | -4.56877 | -38.51302 | 35894 ft | 495 kts | 182° |
| 2026-05-07 17:19 | -4.63783 | -38.51358 | 35893 ft | 495 kts | 181° |
| 2026-05-07 17:20 | -4.70652 | -38.51384 | 35896 ft | 496 kts | 181° |
| 2026-05-07 17:20 | -4.77572 | -38.51402 | 35893 ft | 496 kts | 181° |
| 2026-05-07 17:21 | -4.84505 | -38.51421 | 35893 ft | 496 kts | 181° |
| 2026-05-07 17:21 | -4.91391 | -38.51442 | 35894 ft | 496 kts | 181° |
| 2026-05-07 17:22 | -4.98317 | -38.51463 | 35891 ft | 496 kts | 181° |
| 2026-05-07 17:22 | -5.05189 | -38.51483 | 35897 ft | 496 kts | 181° |
| 2026-05-07 17:23 | -5.12108 | -38.51496 | 35891 ft | 497 kts | 181° |
| 2026-05-07 17:23 | -5.19023 | -38.51356 | 35897 ft | 497 kts | 180° |
| 2026-05-07 17:24 | -5.25902 | -38.51163 | 35893 ft | 496 kts | 180° |
| 2026-05-07 17:24 | -5.32822 | -38.50990 | 35888 ft | 496 kts | 180° |
| 2026-05-07 17:25 | -5.39731 | -38.50832 | 35892 ft | 496 kts | 180° |
| 2026-05-07 17:25 | -5.46596 | -38.50676 | 35894 ft | 495 kts | 181° |
| 2026-05-07 17:26 | -5.53494 | -38.50518 | 35891 ft | 495 kts | 181° |
| 2026-05-07 17:26 | -5.60390 | -38.50366 | 35893 ft | 494 kts | 182° |
| 2026-05-07 17:27 | -5.67192 | -38.50948 | 35890 ft | 490 kts | 192° |
| 2026-05-07 17:27 | -5.73895 | -38.52210 | 35897 ft | 490 kts | 193° |
| 2026-05-07 17:28 | -5.80573 | -38.53481 | 35901 ft | 490 kts | 193° |
| 2026-05-07 17:28 | -5.87312 | -38.54726 | 35898 ft | 491 kts | 193° |
| 2026-05-07 17:29 | -5.93998 | -38.55942 | 35903 ft | 491 kts | 193° |
| 2026-05-07 17:29 | -6.00722 | -38.57163 | 35907 ft | 491 kts | 193° |
| 2026-05-07 17:30 | -6.07453 | -38.58388 | 35907 ft | 491 kts | 193° |
| 2026-05-07 17:30 | -6.14192 | -38.59616 | 35900 ft | 491 kts | 193° |
| 2026-05-07 17:31 | -6.20884 | -38.60835 | 35920 ft | 491 kts | 193° |
| 2026-05-07 17:31 | -6.27619 | -38.62062 | 35916 ft | 491 kts | 193° |
| 2026-05-07 17:32 | -6.34304 | -38.63282 | 35908 ft | 490 kts | 193° |
| 2026-05-07 17:32 | -6.39897 | -38.64301 | 35921 ft | 490 kts | 193° |
| 2026-05-07 17:33 | -6.47752 | -38.65735 | 35916 ft | 490 kts | 193° |
| 2026-05-07 17:33 | -6.54419 | -38.66952 | 35921 ft | 489 kts | 193° |
| 2026-05-07 17:34 | -6.61120 | -38.68182 | 35915 ft | 489 kts | 193° |
| 2026-05-07 17:34 | -6.67828 | -38.69414 | 35904 ft | 489 kts | 194° |
| 2026-05-07 17:35 | -6.74477 | -38.70634 | 35904 ft | 488 kts | 194° |
| 2026-05-07 17:35 | -6.81182 | -38.71865 | 35911 ft | 488 kts | 194° |
| 2026-05-07 17:36 | -6.87841 | -38.73087 | 35909 ft | 488 kts | 194° |
| 2026-05-07 17:36 | -6.94540 | -38.74318 | 35907 ft | 488 kts | 194° |
| 2026-05-07 17:37 | -7.01227 | -38.75547 | 35911 ft | 488 kts | 194° |
| 2026-05-07 17:37 | -7.07857 | -38.76762 | 35909 ft | 487 kts | 194° |
| 2026-05-07 17:38 | -7.14546 | -38.77984 | 35909 ft | 487 kts | 194° |
| 2026-05-07 17:38 | -7.21227 | -38.79206 | 35910 ft | 487 kts | 194° |
| 2026-05-07 17:39 | -7.27916 | -38.80430 | 35917 ft | 487 kts | 194° |
| 2026-05-07 17:39 | -7.34540 | -38.81643 | 35912 ft | 487 kts | 194° |
| 2026-05-07 17:40 | -7.41209 | -38.82865 | 35916 ft | 487 kts | 194° |
| 2026-05-07 17:40 | -7.47853 | -38.84083 | 35915 ft | 487 kts | 194° |
| 2026-05-07 17:41 | -7.54524 | -38.85306 | 35916 ft | 486 kts | 194° |
| 2026-05-07 17:41 | -7.61161 | -38.86523 | 35916 ft | 486 kts | 194° |
| 2026-05-07 17:42 | -7.67823 | -38.87745 | 35915 ft | 486 kts | 194° |
| 2026-05-07 17:42 | -7.73366 | -38.88761 | 35922 ft | 486 kts | 194° |
| 2026-05-07 17:43 | -7.80049 | -38.89988 | 35918 ft | 486 kts | 194° |
| 2026-05-07 17:43 | -7.86712 | -38.91212 | 35918 ft | 486 kts | 194° |
| 2026-05-07 17:44 | -7.93334 | -38.92439 | 35918 ft | 486 kts | 194° |
| 2026-05-07 17:44 | -8.00009 | -38.93681 | 35922 ft | 486 kts | 194° |
| 2026-05-07 17:45 | -8.06619 | -38.94907 | 35923 ft | 485 kts | 194° |
| 2026-05-07 17:45 | -8.13266 | -38.96138 | 35921 ft | 485 kts | 194° |
| 2026-05-07 17:46 | -8.19921 | -38.97371 | 35920 ft | 484 kts | 194° |
| 2026-05-07 17:46 | -8.26548 | -38.98600 | 35924 ft | 484 kts | 194° |
| 2026-05-07 17:47 | -8.33150 | -38.99825 | 35922 ft | 483 kts | 194° |
| 2026-05-07 17:47 | -8.39765 | -39.01053 | 35914 ft | 483 kts | 194° |
| 2026-05-07 17:48 | -8.46333 | -39.02272 | 35919 ft | 482 kts | 194° |
| 2026-05-07 17:48 | -8.52946 | -39.03477 | 35921 ft | 482 kts | 194° |
| 2026-05-07 17:49 | -8.59552 | -39.04675 | 35914 ft | 481 kts | 194° |
| 2026-05-07 17:49 | -8.66109 | -39.05868 | 35917 ft | 481 kts | 194° |
| 2026-05-07 17:50 | -8.72695 | -39.07069 | 35916 ft | 480 kts | 194° |
| 2026-05-07 17:50 | -8.79293 | -39.08271 | 35916 ft | 480 kts | 194° |
| 2026-05-07 17:51 | -8.85867 | -39.09484 | 35917 ft | 480 kts | 194° |
| 2026-05-07 17:51 | -8.92441 | -39.10705 | 35916 ft | 480 kts | 194° |
| 2026-05-07 17:52 | -8.98969 | -39.11919 | 35915 ft | 480 kts | 194° |
| 2026-05-07 17:52 | -9.05559 | -39.13142 | 35912 ft | 479 kts | 194° |
| 2026-05-07 17:53 | -9.12074 | -39.14351 | 35919 ft | 479 kts | 194° |
| 2026-05-07 17:53 | -9.18649 | -39.15572 | 35919 ft | 478 kts | 194° |
| 2026-05-07 17:54 | -9.25197 | -39.16788 | 35923 ft | 478 kts | 194° |
| 2026-05-07 17:54 | -9.31707 | -39.17998 | 35918 ft | 478 kts | 194° |
| 2026-05-07 17:55 | -9.38250 | -39.19214 | 35919 ft | 477 kts | 194° |
| 2026-05-07 17:55 | -9.44786 | -39.20430 | 35921 ft | 477 kts | 194° |
| 2026-05-07 17:56 | -9.51289 | -39.21640 | 35918 ft | 477 kts | 194° |
| 2026-05-07 17:56 | -9.57816 | -39.22855 | 35930 ft | 476 kts | 194° |
| 2026-05-07 17:57 | -9.63246 | -39.23866 | 35926 ft | 476 kts | 194° |
| 2026-05-07 17:57 | -9.70873 | -39.25287 | 35936 ft | 476 kts | 194° |
| 2026-05-07 17:58 | -9.77348 | -39.26494 | 35934 ft | 476 kts | 194° |
| 2026-05-07 17:58 | -9.83869 | -39.27709 | 35931 ft | 475 kts | 194° |
| 2026-05-07 17:59 | -9.90382 | -39.28924 | 35942 ft | 475 kts | 194° |
| 2026-05-07 17:59 | -9.96884 | -39.30138 | 35942 ft | 474 kts | 194° |
| 2026-05-07 18:00 | -10.03342 | -39.31343 | 35950 ft | 474 kts | 194° |
| 2026-05-07 18:00 | -10.09849 | -39.32559 | 35952 ft | 473 kts | 194° |
| 2026-05-07 18:01 | -10.16289 | -39.33764 | 35949 ft | 473 kts | 194° |
| 2026-05-07 18:01 | -10.22777 | -39.34978 | 35954 ft | 472 kts | 194° |
| 2026-05-07 18:02 | -10.32453 | -39.36804 | 35962 ft | 472 kts | 194° |
| 2026-05-07 18:03 | -10.38919 | -39.38036 | 35964 ft | 472 kts | 194° |
| 2026-05-07 18:03 | -10.45384 | -39.39246 | 35961 ft | 472 kts | 194° |
| 2026-05-07 18:04 | -10.51817 | -39.40441 | 35967 ft | 471 kts | 194° |
| 2026-05-07 18:04 | -10.58287 | -39.41644 | 35967 ft | 471 kts | 194° |
| 2026-05-07 18:05 | -10.64727 | -39.42846 | 35965 ft | 470 kts | 194° |
| 2026-05-07 18:05 | -10.71173 | -39.44050 | 35972 ft | 470 kts | 194° |
| 2026-05-07 18:06 | -10.77582 | -39.45248 | 35966 ft | 469 kts | 194° |
| 2026-05-07 18:06 | -10.84019 | -39.46451 | 35965 ft | 469 kts | 194° |
| 2026-05-07 18:07 | -10.90407 | -39.47646 | 35969 ft | 468 kts | 194° |
| 2026-05-07 18:07 | -10.96822 | -39.48846 | 35971 ft | 468 kts | 194° |
| 2026-05-07 18:08 | -11.03198 | -39.50039 | 35976 ft | 467 kts | 194° |
| 2026-05-07 18:08 | -11.09559 | -39.51230 | 35977 ft | 466 kts | 194° |
| 2026-05-07 18:09 | -11.15942 | -39.52426 | 35979 ft | 465 kts | 194° |
| 2026-05-07 18:09 | -11.22290 | -39.53615 | 35983 ft | 465 kts | 194° |
| 2026-05-07 18:10 | -11.28661 | -39.54810 | 35981 ft | 464 kts | 194° |
| 2026-05-07 18:10 | -11.35019 | -39.56003 | 35988 ft | 464 kts | 194° |
| 2026-05-07 18:11 | -11.41378 | -39.57197 | 35980 ft | 464 kts | 194° |
| 2026-05-07 18:11 | -11.47698 | -39.58383 | 35985 ft | 463 kts | 194° |
| 2026-05-07 18:12 | -11.54015 | -39.59569 | 35985 ft | 462 kts | 194° |
| 2026-05-07 18:12 | -11.60346 | -39.60759 | 35984 ft | 462 kts | 194° |
| 2026-05-07 18:13 | -11.66672 | -39.61949 | 35985 ft | 462 kts | 194° |
| 2026-05-07 18:13 | -11.73004 | -39.63140 | 35985 ft | 461 kts | 194° |
| 2026-05-07 18:14 | -11.79271 | -39.64321 | 35988 ft | 461 kts | 194° |
| 2026-05-07 18:14 | -11.85590 | -39.65535 | 35986 ft | 460 kts | 194° |
| 2026-05-07 18:15 | -11.91868 | -39.66735 | 36033 ft | 462 kts | 194° |
| 2026-05-07 18:15 | -11.95048 | -39.67336 | 36304 ft | 463 kts | 194° |
| 2026-05-07 18:15 | -11.98220 | -39.67933 | 36660 ft | 461 kts | 194° |
| 2026-05-07 18:15 | -12.01348 | -39.68521 | 36977 ft | 461 kts | 194° |
| 2026-05-07 18:16 | -12.04508 | -39.69116 | 37294 ft | 460 kts | 194° |
| 2026-05-07 18:16 | -12.07660 | -39.69710 | 37551 ft | 461 kts | 194° |
| 2026-05-07 18:16 | -12.10820 | -39.70307 | 37752 ft | 462 kts | 194° |
| 2026-05-07 18:16 | -12.13988 | -39.70906 | 37912 ft | 464 kts | 194° |
| 2026-05-07 18:17 | -12.17187 | -39.71512 | 37962 ft | 468 kts | 194° |
| 2026-05-07 18:17 | -12.23587 | -39.72723 | 37988 ft | 470 kts | 194° |
| 2026-05-07 18:18 | -12.30022 | -39.73938 | 37992 ft | 468 kts | 194° |
| 2026-05-07 18:18 | -12.36389 | -39.75143 | 37987 ft | 467 kts | 194° |
| 2026-05-07 18:19 | -12.42773 | -39.76352 | 37988 ft | 466 kts | 194° |
| 2026-05-07 18:19 | -12.49171 | -39.77565 | 37993 ft | 465 kts | 194° |
| 2026-05-07 18:20 | -12.55497 | -39.78764 | 37990 ft | 464 kts | 194° |
| 2026-05-07 18:20 | -12.61859 | -39.79971 | 37995 ft | 464 kts | 194° |
| 2026-05-07 18:21 | -12.68218 | -39.81178 | 37999 ft | 463 kts | 194° |
| 2026-05-07 18:21 | -12.74516 | -39.82374 | 37997 ft | 463 kts | 194° |
| 2026-05-07 18:22 | -12.80867 | -39.83581 | 38004 ft | 462 kts | 194° |
| 2026-05-07 18:22 | -12.87180 | -39.84782 | 37990 ft | 462 kts | 194° |
| 2026-05-07 18:23 | -12.93499 | -39.85997 | 38014 ft | 462 kts | 194° |
| 2026-05-07 18:23 | -12.99836 | -39.87222 | 38005 ft | 462 kts | 194° |
| 2026-05-07 18:24 | -13.06136 | -39.88438 | 38003 ft | 462 kts | 194° |
| 2026-05-07 18:24 | -13.12459 | -39.89658 | 38014 ft | 462 kts | 194° |
| 2026-05-07 18:25 | -13.18777 | -39.90877 | 38023 ft | 462 kts | 194° |
| 2026-05-07 18:25 | -13.25053 | -39.92090 | 38032 ft | 461 kts | 194° |
| 2026-05-07 18:26 | -13.31357 | -39.93308 | 38020 ft | 461 kts | 193° |
| 2026-05-07 18:26 | -13.37677 | -39.94531 | 38042 ft | 460 kts | 193° |
| 2026-05-07 18:27 | -13.43951 | -39.95749 | 38038 ft | 461 kts | 193° |
| 2026-05-07 18:27 | -13.50271 | -39.96979 | 38037 ft | 461 kts | 193° |
| 2026-05-07 18:28 | -13.55526 | -39.98001 | 38034 ft | 462 kts | 193° |
| 2026-05-07 18:28 | -13.61857 | -39.99233 | 38034 ft | 462 kts | 193° |
| 2026-05-07 18:29 | -13.68162 | -40.00458 | 38039 ft | 463 kts | 193° |
| 2026-05-07 18:29 | -13.74497 | -40.01692 | 38026 ft | 463 kts | 193° |
| 2026-05-07 18:30 | -13.80801 | -40.02918 | 38027 ft | 463 kts | 193° |
| 2026-05-07 18:30 | -13.87151 | -40.04154 | 38027 ft | 463 kts | 193° |
| 2026-05-07 18:31 | -13.93453 | -40.05382 | 38024 ft | 463 kts | 193° |
| 2026-05-07 18:31 | -13.99789 | -40.06617 | 38027 ft | 462 kts | 193° |
| 2026-05-07 18:32 | -14.06125 | -40.07854 | 38014 ft | 462 kts | 193° |
| 2026-05-07 18:32 | -14.12418 | -40.09083 | 38033 ft | 462 kts | 192° |
| 2026-05-07 18:33 | -14.18749 | -40.10320 | 38014 ft | 462 kts | 192° |
| 2026-05-07 18:33 | -14.25030 | -40.11547 | 38035 ft | 461 kts | 192° |
| 2026-05-07 18:34 | -14.31360 | -40.12785 | 38029 ft | 462 kts | 192° |
| 2026-05-07 18:34 | -14.37690 | -40.14024 | 38040 ft | 462 kts | 192° |
| 2026-05-07 18:35 | -14.44006 | -40.15260 | 38023 ft | 462 kts | 192° |
| 2026-05-07 18:35 | -14.50304 | -40.16494 | 38027 ft | 462 kts | 192° |
| 2026-05-07 18:36 | -14.56634 | -40.17735 | 38026 ft | 462 kts | 192° |
| 2026-05-07 18:36 | -14.62926 | -40.18969 | 38029 ft | 462 kts | 192° |
| 2026-05-07 18:37 | -14.69255 | -40.20206 | 38030 ft | 462 kts | 192° |
| 2026-05-07 18:37 | -14.75569 | -40.21439 | 38036 ft | 461 kts | 192° |
| 2026-05-07 18:38 | -14.81846 | -40.22672 | 38024 ft | 461 kts | 192° |
| 2026-05-07 18:38 | -14.88159 | -40.23911 | 38032 ft | 460 kts | 192° |
| 2026-05-07 18:39 | -14.94423 | -40.25140 | 38013 ft | 460 kts | 192° |
| 2026-05-07 18:39 | -15.00727 | -40.26377 | 38019 ft | 460 kts | 192° |
| 2026-05-07 18:40 | -15.07028 | -40.27615 | 38017 ft | 460 kts | 192° |
| 2026-05-07 18:40 | -15.13305 | -40.28849 | 38009 ft | 460 kts | 191° |
| 2026-05-07 18:41 | -15.19606 | -40.30088 | 38006 ft | 459 kts | 191° |
| 2026-05-07 18:41 | -15.25853 | -40.31318 | 38007 ft | 459 kts | 191° |
| 2026-05-07 18:42 | -15.32132 | -40.32553 | 38008 ft | 458 kts | 191° |
| 2026-05-07 18:42 | -15.38368 | -40.33777 | 38004 ft | 458 kts | 191° |
| 2026-05-07 18:43 | -15.44644 | -40.35011 | 38006 ft | 457 kts | 191° |
| 2026-05-07 18:43 | -15.50877 | -40.36237 | 38008 ft | 457 kts | 191° |
| 2026-05-07 18:44 | -15.57130 | -40.37468 | 38006 ft | 457 kts | 191° |
| 2026-05-07 18:44 | -15.63349 | -40.38693 | 38011 ft | 456 kts | 191° |
| 2026-05-07 18:45 | -15.69600 | -40.39926 | 38005 ft | 456 kts | 191° |
| 2026-05-07 18:45 | -15.75859 | -40.41160 | 38007 ft | 456 kts | 191° |
| 2026-05-07 18:46 | -15.82061 | -40.42385 | 38019 ft | 456 kts | 191° |
| 2026-05-07 18:46 | -15.88294 | -40.43616 | 38011 ft | 456 kts | 191° |
| 2026-05-07 18:47 | -15.94542 | -40.44851 | 38009 ft | 456 kts | 191° |
| 2026-05-07 18:47 | -16.00734 | -40.46080 | 38018 ft | 455 kts | 191° |
| 2026-05-07 18:48 | -16.06978 | -40.47327 | 38014 ft | 456 kts | 191° |
| 2026-05-07 18:48 | -16.13186 | -40.48568 | 38017 ft | 456 kts | 191° |
| 2026-05-07 18:49 | -16.19425 | -40.49815 | 38019 ft | 455 kts | 191° |
| 2026-05-07 18:49 | -16.25650 | -40.51060 | 38010 ft | 452 kts | 191° |
| 2026-05-07 18:50 | -16.31697 | -40.52270 | 38007 ft | 440 kts | 191° |
| 2026-05-07 18:50 | -16.37707 | -40.53473 | 38025 ft | 439 kts | 191° |
| 2026-05-07 18:51 | -16.43686 | -40.54671 | 38026 ft | 439 kts | 191° |
| 2026-05-07 18:51 | -16.49707 | -40.55879 | 38027 ft | 439 kts | 191° |
| 2026-05-07 18:52 | -16.55718 | -40.57084 | 38033 ft | 439 kts | 191° |
| 2026-05-07 18:52 | -16.61700 | -40.58285 | 38021 ft | 439 kts | 191° |
| 2026-05-07 18:53 | -16.67719 | -40.59494 | 38031 ft | 439 kts | 191° |
| 2026-05-07 18:53 | -16.73690 | -40.60695 | 38027 ft | 438 kts | 191° |
| 2026-05-07 18:54 | -16.79691 | -40.61902 | 38032 ft | 438 kts | 191° |
| 2026-05-07 18:54 | -16.85691 | -40.63109 | 38027 ft | 438 kts | 191° |
| 2026-05-07 18:55 | -16.91676 | -40.64314 | 38031 ft | 438 kts | 191° |
| 2026-05-07 18:55 | -16.97631 | -40.65514 | 38028 ft | 438 kts | 191° |
| 2026-05-07 18:56 | -17.03622 | -40.66723 | 38033 ft | 438 kts | 191° |
| 2026-05-07 18:56 | -17.09604 | -40.67930 | 38022 ft | 437 kts | 191° |
| 2026-05-07 18:57 | -17.15591 | -40.69140 | 38026 ft | 437 kts | 191° |
| 2026-05-07 18:57 | -17.21553 | -40.70345 | 38021 ft | 436 kts | 191° |
| 2026-05-07 18:58 | -17.27484 | -40.71545 | 38021 ft | 435 kts | 191° |
| 2026-05-07 18:58 | -17.33450 | -40.72752 | 38020 ft | 434 kts | 191° |
| 2026-05-07 18:59 | -17.39355 | -40.73948 | 38026 ft | 434 kts | 191° |
| 2026-05-07 18:59 | -17.45278 | -40.75149 | 38023 ft | 433 kts | 191° |
| 2026-05-07 19:00 | -17.51197 | -40.76344 | 38023 ft | 432 kts | 191° |
| 2026-05-07 19:00 | -17.57071 | -40.77520 | 38023 ft | 432 kts | 191° |
| 2026-05-07 19:01 | -17.62984 | -40.78705 | 38024 ft | 432 kts | 191° |
| 2026-05-07 19:01 | -17.68900 | -40.79894 | 38021 ft | 431 kts | 191° |
| 2026-05-07 19:02 | -17.74769 | -40.81073 | 38030 ft | 431 kts | 191° |
| 2026-05-07 19:02 | -17.80672 | -40.82261 | 38029 ft | 430 kts | 191° |
| 2026-05-07 19:03 | -17.86522 | -40.83440 | 38020 ft | 430 kts | 191° |
| 2026-05-07 19:03 | -17.92412 | -40.84628 | 38018 ft | 430 kts | 190° |
| 2026-05-07 19:04 | -17.98303 | -40.85817 | 38024 ft | 430 kts | 190° |
| 2026-05-07 19:04 | -18.04160 | -40.87001 | 38028 ft | 430 kts | 190° |
| 2026-05-07 19:05 | -18.10042 | -40.88190 | 38028 ft | 429 kts | 190° |
| 2026-05-07 19:05 | -18.15886 | -40.89372 | 38028 ft | 429 kts | 190° |
| 2026-05-07 19:06 | -18.21767 | -40.90562 | 38030 ft | 429 kts | 190° |
| 2026-05-07 19:06 | -18.30528 | -40.92341 | 38029 ft | 428 kts | 191° |
| 2026-05-07 19:07 | -18.36373 | -40.93536 | 38027 ft | 428 kts | 191° |
| 2026-05-07 19:07 | -18.42230 | -40.94734 | 38024 ft | 427 kts | 191° |
| 2026-05-07 19:08 | -18.48033 | -40.95923 | 38026 ft | 425 kts | 191° |
| 2026-05-07 19:08 | -18.53841 | -40.97112 | 38048 ft | 425 kts | 191° |
| 2026-05-07 19:09 | -18.59661 | -40.98304 | 38042 ft | 425 kts | 191° |
| 2026-05-07 19:09 | -18.65461 | -40.99493 | 38039 ft | 426 kts | 191° |
| 2026-05-07 19:10 | -18.71276 | -41.00686 | 38037 ft | 427 kts | 191° |
| 2026-05-07 19:10 | -18.77116 | -41.01885 | 38035 ft | 427 kts | 191° |
| 2026-05-07 19:11 | -18.82926 | -41.03080 | 38048 ft | 427 kts | 191° |
| 2026-05-07 19:11 | -18.88766 | -41.04280 | 38037 ft | 427 kts | 191° |
| 2026-05-07 19:12 | -18.94623 | -41.05485 | 38034 ft | 427 kts | 191° |
| 2026-05-07 19:12 | -19.00423 | -41.06680 | 38042 ft | 426 kts | 191° |
| 2026-05-07 19:13 | -19.05300 | -41.07684 | 38049 ft | 426 kts | 191° |
| 2026-05-07 19:13 | -19.12071 | -41.09071 | 38039 ft | 426 kts | 191° |
| 2026-05-07 19:14 | -19.16919 | -41.10064 | 38040 ft | 425 kts | 191° |
| 2026-05-07 19:14 | -19.22689 | -41.11247 | 38040 ft | 424 kts | 191° |
| 2026-05-07 19:15 | -19.28509 | -41.12441 | 38038 ft | 424 kts | 191° |
| 2026-05-07 19:15 | -19.34289 | -41.13629 | 38038 ft | 424 kts | 191° |
| 2026-05-07 19:16 | -19.40085 | -41.14820 | 38040 ft | 424 kts | 191° |
| 2026-05-07 19:16 | -19.45876 | -41.16014 | 38042 ft | 423 kts | 191° |
| 2026-05-07 19:17 | -19.51633 | -41.17209 | 38038 ft | 423 kts | 191° |
| 2026-05-07 19:17 | -19.57433 | -41.18415 | 38047 ft | 424 kts | 191° |
| 2026-05-07 19:18 | -19.63198 | -41.19614 | 38046 ft | 424 kts | 191° |
| 2026-05-07 19:18 | -19.69002 | -41.20821 | 38041 ft | 424 kts | 191° |
| 2026-05-07 19:19 | -19.74765 | -41.22021 | 38039 ft | 424 kts | 191° |
| 2026-05-07 19:19 | -19.80569 | -41.23235 | 38045 ft | 424 kts | 191° |
| 2026-05-07 19:20 | -19.86332 | -41.24445 | 38054 ft | 424 kts | 191° |
| 2026-05-07 19:20 | -19.92126 | -41.25656 | 38056 ft | 423 kts | 191° |
| 2026-05-07 19:21 | -19.97912 | -41.26864 | 38063 ft | 423 kts | 191° |
| 2026-05-07 19:21 | -20.03684 | -41.28071 | 38067 ft | 423 kts | 192° |
| 2026-05-07 19:22 | -20.09470 | -41.29283 | 38065 ft | 423 kts | 192° |
| 2026-05-07 19:22 | -20.15220 | -41.30487 | 38064 ft | 423 kts | 192° |
| 2026-05-07 19:23 | -20.20995 | -41.31682 | 38066 ft | 422 kts | 192° |
| 2026-05-07 19:23 | -20.26758 | -41.32870 | 38070 ft | 422 kts | 192° |
| 2026-05-07 19:24 | -20.32534 | -41.34064 | 38068 ft | 422 kts | 192° |
| 2026-05-07 19:24 | -20.38307 | -41.35258 | 38065 ft | 422 kts | 192° |
| 2026-05-07 19:25 | -20.44043 | -41.36461 | 38059 ft | 421 kts | 192° |
| 2026-05-07 19:25 | -20.49804 | -41.37712 | 38068 ft | 421 kts | 192° |
| 2026-05-07 19:26 | -20.55515 | -41.38920 | 38063 ft | 421 kts | 192° |
| 2026-05-07 19:26 | -20.61225 | -41.40325 | 38050 ft | 421 kts | 199° |
| 2026-05-07 19:27 | -20.66636 | -41.42726 | 38036 ft | 420 kts | 206° |
| 2026-05-07 19:27 | -20.71672 | -41.45853 | 38050 ft | 420 kts | 210° |
| 2026-05-07 19:28 | -20.76612 | -41.49149 | 38047 ft | 421 kts | 210° |
| 2026-05-07 19:28 | -20.81590 | -41.52467 | 38037 ft | 420 kts | 210° |
| 2026-05-07 19:29 | -20.86566 | -41.55760 | 38049 ft | 420 kts | 210° |
| 2026-05-07 19:29 | -20.91527 | -41.59033 | 38040 ft | 421 kts | 210° |
| 2026-05-07 19:30 | -20.96522 | -41.62329 | 38038 ft | 422 kts | 210° |
| 2026-05-07 19:30 | -21.01533 | -41.65638 | 38027 ft | 422 kts | 210° |
| 2026-05-07 19:31 | -21.06501 | -41.68922 | 38030 ft | 422 kts | 210° |
| 2026-05-07 19:31 | -21.11500 | -41.72229 | 38026 ft | 422 kts | 210° |
| 2026-05-07 19:32 | -21.16497 | -41.75538 | 38021 ft | 421 kts | 210° |
| 2026-05-07 19:32 | -21.21475 | -41.78836 | 38026 ft | 419 kts | 210° |
| 2026-05-07 19:33 | -21.26427 | -41.82121 | 38015 ft | 419 kts | 211° |
| 2026-05-07 19:33 | -21.31390 | -41.85414 | 38014 ft | 419 kts | 211° |
| 2026-05-07 19:34 | -21.36313 | -41.88684 | 38018 ft | 418 kts | 211° |
| 2026-05-07 19:34 | -21.41269 | -41.91979 | 38010 ft | 418 kts | 211° |
| 2026-05-07 19:35 | -21.46224 | -41.95275 | 37957 ft | 416 kts | 211° |
| 2026-05-07 19:35 | -21.48651 | -41.96891 | 37657 ft | 416 kts | 211° |
| 2026-05-07 19:35 | -21.51134 | -41.98545 | 37160 ft | 419 kts | 211° |
| 2026-05-07 19:36 | -21.53638 | -42.00213 | 36635 ft | 424 kts | 211° |
| 2026-05-07 19:36 | -21.56130 | -42.01873 | 36106 ft | 428 kts | 211° |
| 2026-05-07 19:36 | -21.58667 | -42.03563 | 35702 ft | 429 kts | 211° |
| 2026-05-07 19:36 | -21.61202 | -42.05255 | 35403 ft | 427 kts | 211° |
| 2026-05-07 19:37 | -21.63730 | -42.06943 | 34854 ft | 424 kts | 211° |
| 2026-05-07 19:37 | -21.66197 | -42.08590 | 34350 ft | 421 kts | 211° |
| 2026-05-07 19:37 | -21.68682 | -42.10251 | 33788 ft | 418 kts | 211° |
| 2026-05-07 19:37 | -21.71152 | -42.11902 | 33211 ft | 416 kts | 211° |
| 2026-05-07 19:38 | -21.73602 | -42.13540 | 32611 ft | 415 kts | 211° |
| 2026-05-07 19:38 | -21.76052 | -42.15179 | 32045 ft | 414 kts | 211° |
| 2026-05-07 19:38 | -21.78477 | -42.16801 | 31496 ft | 413 kts | 211° |
| 2026-05-07 19:38 | -21.80913 | -42.18432 | 30936 ft | 411 kts | 210° |
| 2026-05-07 19:39 | -21.83340 | -42.20057 | 30417 ft | 411 kts | 210° |
| 2026-05-07 19:39 | -21.85786 | -42.21653 | 29844 ft | 409 kts | 208° |
| 2026-05-07 19:39 | -21.88267 | -42.23158 | 29228 ft | 408 kts | 208° |
| 2026-05-07 19:39 | -21.90726 | -42.24611 | 28638 ft | 407 kts | 207° |
| 2026-05-07 19:40 | -21.93209 | -42.26078 | 28060 ft | 406 kts | 208° |
| 2026-05-07 19:40 | -21.95670 | -42.27545 | 27594 ft | 401 kts | 208° |
| 2026-05-07 19:40 | -21.98098 | -42.29004 | 27129 ft | 397 kts | 208° |
| 2026-05-07 19:40 | -22.00495 | -42.30452 | 26699 ft | 393 kts | 208° |
| 2026-05-07 19:41 | -22.02877 | -42.31892 | 26298 ft | 389 kts | 208° |
| 2026-05-07 19:41 | -22.05194 | -42.33294 | 25929 ft | 386 kts | 208° |
| 2026-05-07 19:41 | -22.07538 | -42.34724 | 25546 ft | 386 kts | 211° |
| 2026-05-07 19:41 | -22.09588 | -42.36635 | 25170 ft | 395 kts | 229° |
| 2026-05-07 19:42 | -22.11082 | -42.39156 | 24815 ft | 402 kts | 244° |
| 2026-05-07 19:42 | -22.11937 | -42.42032 | 24474 ft | 403 kts | 253° |
| 2026-05-07 19:42 | -22.12616 | -42.44937 | 24129 ft | 404 kts | 254° |
| 2026-05-07 19:42 | -22.13283 | -42.47894 | 23780 ft | 405 kts | 254° |
| 2026-05-07 19:43 | -22.13952 | -42.50842 | 23397 ft | 403 kts | 254° |
| 2026-05-07 19:43 | -22.14628 | -42.53761 | 22979 ft | 399 kts | 254° |
| 2026-05-07 19:43 | -22.15308 | -42.56649 | 22556 ft | 395 kts | 254° |
| 2026-05-07 19:43 | -22.15980 | -42.59470 | 22143 ft | 391 kts | 254° |
| 2026-05-07 19:44 | -22.16659 | -42.62302 | 21751 ft | 387 kts | 254° |
| 2026-05-07 19:44 | -22.17333 | -42.65108 | 21348 ft | 384 kts | 254° |
| 2026-05-07 19:44 | -22.18002 | -42.67890 | 20951 ft | 381 kts | 254° |
| 2026-05-07 19:44 | -22.18662 | -42.70643 | 20623 ft | 377 kts | 254° |
| 2026-05-07 19:45 | -22.19318 | -42.73374 | 20278 ft | 375 kts | 254° |
| 2026-05-07 19:45 | -22.19971 | -42.76102 | 19951 ft | 377 kts | 254° |
| 2026-05-07 19:45 | -22.20623 | -42.78828 | 19642 ft | 380 kts | 255° |
| 2026-05-07 19:45 | -22.21287 | -42.81602 | 19322 ft | 381 kts | 255° |
| 2026-05-07 19:46 | -22.21950 | -42.84377 | 19008 ft | 381 kts | 255° |
| 2026-05-07 19:46 | -22.22614 | -42.87154 | 18684 ft | 381 kts | 255° |
| 2026-05-07 19:46 | -22.23274 | -42.89924 | 18369 ft | 380 kts | 255° |
| 2026-05-07 19:46 | -22.23932 | -42.92686 | 18021 ft | 379 kts | 255° |
| 2026-05-07 19:47 | -22.24589 | -42.95446 | 17664 ft | 378 kts | 256° |
| 2026-05-07 19:47 | -22.25232 | -42.98149 | 17322 ft | 373 kts | 256° |
| 2026-05-07 19:47 | -22.25874 | -43.00848 | 16987 ft | 368 kts | 256° |
| 2026-05-07 19:47 | -22.26504 | -43.03498 | 16652 ft | 362 kts | 256° |
| 2026-05-07 19:48 | -22.27128 | -43.06125 | 16336 ft | 357 kts | 256° |
| 2026-05-07 19:48 | -22.27742 | -43.08715 | 16016 ft | 354 kts | 256° |
| 2026-05-07 19:48 | -22.28349 | -43.11278 | 15697 ft | 351 kts | 256° |
| 2026-05-07 19:48 | -22.28954 | -43.13829 | 15382 ft | 349 kts | 256° |
| 2026-05-07 19:49 | -22.29543 | -43.16324 | 15082 ft | 346 kts | 256° |
| 2026-05-07 19:49 | -22.30136 | -43.18832 | 14769 ft | 343 kts | 257° |
| 2026-05-07 19:49 | -22.30723 | -43.21316 | 14477 ft | 339 kts | 257° |
| 2026-05-07 19:49 | -22.31302 | -43.23767 | 14170 ft | 335 kts | 257° |
| 2026-05-07 19:50 | -22.31877 | -43.26201 | 13889 ft | 332 kts | 257° |
| 2026-05-07 19:50 | -22.32445 | -43.28607 | 13544 ft | 329 kts | 257° |
| 2026-05-07 19:50 | -22.33007 | -43.30988 | 13208 ft | 326 kts | 258° |
| 2026-05-07 19:50 | -22.33564 | -43.33349 | 12889 ft | 323 kts | 258° |
| 2026-05-07 19:51 | -22.34115 | -43.35696 | 12563 ft | 320 kts | 258° |
| 2026-05-07 19:51 | -22.34653 | -43.37989 | 12243 ft | 318 kts | 258° |
| 2026-05-07 19:51 | -22.35196 | -43.40297 | 11925 ft | 316 kts | 258° |
| 2026-05-07 19:51 | -22.35735 | -43.42593 | 11597 ft | 313 kts | 258° |
| 2026-05-07 19:52 | -22.36271 | -43.44876 | 11228 ft | 314 kts | 259° |
| 2026-05-07 19:52 | -22.36962 | -43.47098 | 10801 ft | 314 kts | 243° |
| 2026-05-07 19:52 | -22.38417 | -43.48869 | 10401 ft | 321 kts | 218° |
| 2026-05-07 19:52 | -22.40423 | -43.49953 | 10051 ft | 323 kts | 202° |
| 2026-05-07 19:53 | -22.42521 | -43.50792 | 9638 ft | 317 kts | 202° |
| 2026-05-07 19:53 | -22.44555 | -43.51613 | 9232 ft | 306 kts | 202° |
| 2026-05-07 19:53 | -22.46515 | -43.52411 | 8853 ft | 296 kts | 203° |
| 2026-05-07 19:53 | -22.48392 | -43.53190 | 8472 ft | 289 kts | 203° |
| 2026-05-07 19:54 | -22.49127 | -43.53497 | 8324 ft | 286 kts | 202° |
| 2026-05-07 19:54 | -22.50836 | -43.54212 | 7949 ft | 279 kts | 203° |
| 2026-05-07 19:55 | -22.52623 | -43.54959 | 7593 ft | 270 kts | 203° |
| 2026-05-07 19:55 | -22.54354 | -43.55682 | 7244 ft | 262 kts | 202° |
| 2026-05-07 19:55 | -22.56123 | -43.56019 | 6857 ft | 259 kts | 172° |
| 2026-05-07 19:55 | -22.57796 | -43.55425 | 6545 ft | 250 kts | 152° |
| 2026-05-07 19:56 | -22.59341 | -43.54604 | 6313 ft | 244 kts | 152° |
| 2026-05-07 19:56 | -22.60860 | -43.53804 | 5993 ft | 241 kts | 152° |
| 2026-05-07 19:56 | -22.62374 | -43.53011 | 5702 ft | 241 kts | 151° |
| 2026-05-07 19:56 | -22.63860 | -43.52163 | 5270 ft | 240 kts | 140° |
| 2026-05-07 19:57 | -22.64981 | -43.50886 | 4972 ft | 229 kts | 124° |
| 2026-05-07 19:57 | -22.65916 | -43.49552 | 4702 ft | 222 kts | 122° |
| 2026-05-07 19:57 | -22.66819 | -43.48210 | 4404 ft | 217 kts | 122° |
| 2026-05-07 19:57 | -22.67690 | -43.46899 | 4098 ft | 212 kts | 121° |
| 2026-05-07 19:58 | -22.68547 | -43.45598 | 3836 ft | 212 kts | 121° |
| 2026-05-07 19:58 | -22.69403 | -43.44297 | 3610 ft | 211 kts | 122° |
| 2026-05-07 19:58 | -22.70236 | -43.43039 | 3406 ft | 204 kts | 121° |
| 2026-05-07 19:58 | -22.71074 | -43.41769 | 3316 ft | 209 kts | 121° |
| 2026-05-07 19:59 | -22.71925 | -43.40485 | 3028 ft | 208 kts | 121° |
| 2026-05-07 19:59 | -22.72754 | -43.39229 | 2768 ft | 203 kts | 122° |
| 2026-05-07 19:59 | -22.73562 | -43.38006 | 2502 ft | 195 kts | 122° |
| 2026-05-07 19:59 | -22.74326 | -43.36852 | 2256 ft | 183 kts | 122° |
| 2026-05-07 20:00 | -22.75070 | -43.35718 | 2037 ft | 186 kts | 122° |
| 2026-05-07 20:00 | -22.75809 | -43.34602 | 1797 ft | 178 kts | 123° |
| 2026-05-07 20:00 | -22.76500 | -43.33554 | 1562 ft | 165 kts | 122° |
| 2026-05-07 20:00 | -22.77130 | -43.32600 | 1350 ft | 148 kts | 122° |
| 2026-05-07 20:01 | -22.77522 | -43.32006 | 1256 ft | 146 kts | 123° |
| 2026-05-07 20:01 | -22.78116 | -43.31106 | 1064 ft | 145 kts | 122° |
| 2026-05-07 20:01 | -22.78693 | -43.30199 | 842 ft | 146 kts | 122° |
| 2026-05-07 20:01 | -22.79263 | -43.29305 | 701 ft | 144 kts | 124° |
| 2026-05-07 20:02 | -22.79879 | -43.28434 | 512 ft | 147 kts | 127° |
| 2026-05-07 20:02 | -22.80479 | -43.27542 | 316 ft | 144 kts | 123° |
| 2026-05-07 20:02 | -22.81064 | -43.26651 | 143 ft | 146 kts | 123° |
| 2026-05-07 20:02 | -22.81650 | -43.25753 | 28 ft | 140 kts | 123° |
| 2026-05-07 20:03 | -22.82130 | -43.25015 | 27 ft | 95 kts | 126° |
| 2026-05-07 20:03 | -22.82448 | -43.24540 | 27 ft | 52 kts | 126° |
| 2026-05-07 20:03 | -22.82611 | -43.24298 | 26 ft | 24 kts | 123° |
| 2026-05-07 20:03 | -22.82589 | -43.24202 | 26 ft | 9 kts | 37° |
| 2026-05-07 20:04 | -22.82536 | -43.24179 | 26 ft | 9 kts | 346° |
| 2026-05-07 20:04 | -22.82486 | -43.24222 | 26 ft | 10 kts | 309° |
| 2026-05-07 20:04 | -22.82444 | -43.24282 | 31 ft | 10 kts | 307° |
| 2026-05-07 20:04 | -22.82400 | -43.24347 | 31 ft | 11 kts | 306° |
| 2026-05-07 20:05 | -22.82353 | -43.24419 | 31 ft | 12 kts | 304° |
| 2026-05-07 20:05 | -22.82302 | -43.24500 | 31 ft | 14 kts | 306° |
| 2026-05-07 20:05 | -22.82244 | -43.24588 | 31 ft | 15 kts | 306° |
| 2026-05-07 20:05 | -22.82184 | -43.24678 | 31 ft | 14 kts | 306° |
| 2026-05-07 20:06 | -22.82129 | -43.24726 | 31 ft | 10 kts | 357° |
| 2026-05-07 20:06 | -22.82064 | -43.24696 | 31 ft | 10 kts | 34° |
| 2026-05-07 20:06 | -22.82007 | -43.24653 | 31 ft | 10 kts | 34° |
| 2026-05-07 20:06 | -22.81944 | -43.24616 | 31 ft | 11 kts | 10° |
| 2026-05-07 20:07 | -22.81872 | -43.24597 | 31 ft | 9 kts | 28° |
| 2026-05-07 20:07 | -22.81818 | -43.24560 | 31 ft | 7 kts | 32° |
| 2026-05-07 20:07 | -22.81800 | -43.24515 | 31 ft | 7 kts | 95° |
| 2026-05-07 20:07 | -22.81821 | -43.24466 | 31 ft | 6 kts | 122° |
| 2026-05-07 20:08 | -22.81829 | -43.24454 | 31 ft | 0 kts | 123° |